createdAt,value
2018-04-28T00:00:31.363Z,12.93
2018-04-28T00:02:59.494Z,12.89
2018-04-28T00:05:26.933Z,12.94
2018-04-28T00:07:54.493Z,12.98
2018-04-28T00:10:21.860Z,12.75
2018-04-28T00:12:50.048Z,12.97
2018-04-28T00:15:17.507Z,13.04
2018-04-28T00:17:45.455Z,13.15
2018-04-28T00:20:14.493Z,13.08
2018-04-28T00:22:54.609Z,13.19
2018-04-28T00:25:22.777Z,13.18
2018-04-28T00:27:57.798Z,13.10
2018-04-28T00:30:25.989Z,13.01
2018-04-28T00:32:53.368Z,13.03
2018-04-28T00:35:34.620Z,13.20
2018-04-28T00:38:02.089Z,13.28
2018-04-28T00:40:32.102Z,13.22
2018-04-28T00:42:59.506Z,13.31
2018-04-28T00:48:44.133Z,13.42
2018-04-28T00:54:25.950Z,13.40
2018-04-28T00:56:58.848Z,13.42
2018-04-28T00:59:30.829Z,13.42
2018-04-28T01:02:05.738Z,13.28
2018-04-28T01:04:46.306Z,13.30
2018-04-28T01:07:18.305Z,13.27
2018-04-28T01:12:42.059Z,13.18
2018-04-28T01:15:16.090Z,13.14
2018-04-28T01:17:55.069Z,13.07
2018-04-28T01:20:34.417Z,13.06
2018-04-28T01:23:07.549Z,13.13
2018-04-28T01:25:43.769Z,13.12
2018-04-28T01:28:11.965Z,13.09
2018-04-28T01:30:52.504Z,13.13
2018-04-28T01:33:21.228Z,13.07
2018-04-28T01:36:09.113Z,13.06
2018-04-28T01:38:39.054Z,12.92
2018-04-28T01:44:12.038Z,12.82
2018-04-28T01:46:40.133Z,12.71
2018-04-28T01:49:09.917Z,12.57
2018-04-28T01:51:37.390Z,12.49
2018-04-28T01:54:24.381Z,12.31
2018-04-28T01:56:56.579Z,12.08
2018-04-28T01:59:24.755Z,12.07
2018-04-28T02:01:52.221Z,11.97
2018-04-28T02:04:20.164Z,11.98
2018-04-28T02:06:50.469Z,11.90
2018-04-28T02:09:21.417Z,11.86
2018-04-28T02:11:52.506Z,11.88
2018-04-28T02:17:16.878Z,12.00
2018-04-28T02:19:48.937Z,11.93
2018-04-28T02:25:26.042Z,11.91
2018-04-28T02:31:06.722Z,11.78
2018-04-28T02:36:34.617Z,11.46
2018-04-28T02:39:02.079Z,11.43
2018-04-28T02:44:27.517Z,11.27
2018-04-28T02:47:01.429Z,11.19
2018-04-28T02:49:46.690Z,11.00
2018-04-28T02:52:22.944Z,10.95
2018-04-28T02:54:51.858Z,10.86
2018-04-28T02:57:23.106Z,10.88
2018-04-28T02:59:54.162Z,10.89
2018-04-28T03:02:26.973Z,10.89
2018-04-28T03:04:56.830Z,10.94
2018-04-28T03:10:37.553Z,10.95
2018-04-28T03:13:16.632Z,11.04
2018-04-28T03:15:44.093Z,11.04
2018-04-28T03:18:11.497Z,10.98
2018-04-28T03:20:49.640Z,11.00
2018-04-28T03:23:35.355Z,11.14
2018-04-28T03:29:13.409Z,10.90
2018-04-28T03:31:40.781Z,10.84
2018-04-28T03:34:11.449Z,10.82
2018-04-28T03:36:48.464Z,10.74
2018-04-28T03:39:22.721Z,10.72
2018-04-28T03:41:50.184Z,10.77
2018-04-28T03:44:32.459Z,10.72
2018-04-28T03:50:13.428Z,10.68
2018-04-28T03:53:02.741Z,10.67
2018-04-28T03:55:30.201Z,10.64
2018-04-28T03:58:09.755Z,10.57
2018-04-28T04:00:48.970Z,10.51
2018-04-28T04:03:22.869Z,10.40
2018-04-28T04:05:52.924Z,10.38
2018-04-28T04:08:26.129Z,10.39
2018-04-28T04:14:14.384Z,10.37
2018-04-28T04:16:47.176Z,10.30
2018-04-28T04:22:29.921Z,10.23
2018-04-28T04:28:00.976Z,10.21
2018-04-28T04:30:29.177Z,10.40
2018-04-28T04:33:05.037Z,10.43
2018-04-28T04:35:41.422Z,10.44
2018-04-28T04:38:14.408Z,10.50
2018-04-28T04:40:45.533Z,10.62
2018-04-28T04:43:22.624Z,10.60
2018-04-28T04:45:56.050Z,10.67
2018-04-28T04:48:46.142Z,10.77
2018-04-28T04:54:44.861Z,10.96
2018-04-28T04:57:21.077Z,10.88
2018-04-28T05:00:00.245Z,11.10
2018-04-28T05:02:31.269Z,11.18
2018-04-28T05:05:05.273Z,11.36
2018-04-28T05:07:42.298Z,11.38
2018-04-28T05:10:17.332Z,11.81
2018-04-28T05:15:46.094Z,14.16
2018-04-28T05:18:25.229Z,15.37
2018-04-28T05:20:58.425Z,16.62
2018-04-28T05:23:37.637Z,17.89
2018-04-28T05:29:37.415Z,20.57
2018-04-28T05:32:13.729Z,21.61
2018-04-28T05:37:56.480Z,22.03
2018-04-28T05:40:29.835Z,22.01
2018-04-28T05:46:05.545Z,20.53
2018-04-28T05:48:44.700Z,20.19
2018-04-28T05:51:20.025Z,20.03
2018-04-28T05:53:52.349Z,19.73
2018-04-28T05:56:31.597Z,19.44
2018-04-28T05:59:16.494Z,19.22
2018-04-28T06:01:44.891Z,18.63
2018-04-28T06:04:24.957Z,18.30
2018-04-28T06:10:09.715Z,18.34
2018-04-28T06:12:43.099Z,19.90
2018-04-28T06:15:14.040Z,21.30
2018-04-28T06:17:51.140Z,21.69
2018-04-28T06:20:27.381Z,21.28
2018-04-28T06:22:54.847Z,20.38
2018-04-28T06:25:22.311Z,20.23
2018-04-28T06:27:49.762Z,20.88
2018-04-28T06:30:17.145Z,21.46
2018-04-28T06:32:44.555Z,22.94
2018-04-28T06:35:11.943Z,24.19
2018-04-28T06:37:39.353Z,25.21
2018-04-28T06:40:06.761Z,26.22
2018-04-28T06:42:34.190Z,27.46
2018-04-28T06:45:01.589Z,28.52
2018-04-28T06:47:29.003Z,29.14
2018-04-28T06:49:56.406Z,29.33
2018-04-28T06:52:23.817Z,29.81
2018-04-28T06:54:51.216Z,28.75
2018-04-28T06:57:18.616Z,28.95
2018-04-28T06:59:46.081Z,29.64
2018-04-28T07:02:13.485Z,29.41
2018-04-28T07:04:40.959Z,28.99
2018-04-28T07:07:08.289Z,28.03
2018-04-28T07:09:35.722Z,25.94
2018-04-28T07:12:03.164Z,24.36
2018-04-28T07:14:30.557Z,23.37
2018-04-28T07:16:57.968Z,23.72
2018-04-28T07:19:25.404Z,24.70
2018-04-28T07:21:52.803Z,25.32
2018-04-28T07:24:20.196Z,26.15
2018-04-28T07:26:47.875Z,26.87
2018-04-28T07:29:15.339Z,26.01
2018-04-28T07:31:42.653Z,25.35
2018-04-28T07:34:10.073Z,25.48
2018-04-28T07:36:37.468Z,25.80
2018-04-28T07:39:05.753Z,25.31
2018-04-28T07:41:33.150Z,23.88
2018-04-28T07:44:00.556Z,23.75
2018-04-28T07:46:27.945Z,24.19
2018-04-28T07:48:55.386Z,23.69
2018-04-28T07:51:22.833Z,21.89
2018-04-28T07:53:50.311Z,21.78
2018-04-28T07:56:17.697Z,21.80
2018-04-28T07:58:45.101Z,21.81
2018-04-28T08:01:12.594Z,21.99
2018-04-28T08:03:39.988Z,22.32
2018-04-28T08:06:07.472Z,22.32
2018-04-28T08:08:34.932Z,21.98
2018-04-28T08:11:02.353Z,22.21
2018-04-28T08:13:29.777Z,22.39
2018-04-28T08:15:57.172Z,21.76
2018-04-28T08:18:24.657Z,21.39
2018-04-28T08:20:52.055Z,21.86
2018-04-28T08:23:19.468Z,22.03
2018-04-28T08:25:46.865Z,22.18
2018-04-28T08:28:14.270Z,22.24
2018-04-28T08:30:41.744Z,22.61
2018-04-28T08:33:09.121Z,23.09
2018-04-28T08:35:36.560Z,23.63
2018-04-28T08:38:03.970Z,22.91
2018-04-28T08:40:31.466Z,22.40
2018-04-28T08:42:58.947Z,21.87
2018-04-28T08:45:26.431Z,21.79
2018-04-28T08:47:53.756Z,21.89
2018-04-28T08:50:21.157Z,21.85
2018-04-28T08:52:48.549Z,21.93
2018-04-28T08:55:16.024Z,22.21
2018-04-28T08:57:43.468Z,22.93
2018-04-28T09:00:22.905Z,23.84
2018-04-28T09:02:50.377Z,24.12
2018-04-28T09:05:17.817Z,24.59
2018-04-28T09:07:45.215Z,24.44
2018-04-28T09:10:12.614Z,24.46
2018-04-28T09:12:40.009Z,24.55
2018-04-28T09:15:07.444Z,23.61
2018-04-28T09:17:34.841Z,23.51
2018-04-28T09:20:02.252Z,23.15
2018-04-28T09:22:29.653Z,23.38
2018-04-28T09:24:57.049Z,23.64
2018-04-28T09:27:24.444Z,22.77
2018-04-28T09:29:51.844Z,22.98
2018-04-28T09:32:19.286Z,23.02
2018-04-28T09:34:46.683Z,23.17
2018-04-28T09:37:14.072Z,22.55
2018-04-28T09:39:41.485Z,22.25
2018-04-28T09:42:08.978Z,21.57
2018-04-28T09:44:36.384Z,21.30
2018-04-28T09:47:03.773Z,21.48
2018-04-28T09:49:31.181Z,21.23
2018-04-28T09:51:58.680Z,20.90
2018-04-28T09:54:26.081Z,20.45
2018-04-28T09:56:53.503Z,20.82
2018-04-28T09:59:20.964Z,20.41
2018-04-28T10:01:48.356Z,20.12
2018-04-28T10:04:21.488Z,20.34
2018-04-28T10:06:48.909Z,20.44
2018-04-28T10:09:16.325Z,20.06
2018-04-28T10:11:43.738Z,19.89
2018-04-28T10:14:11.131Z,19.58
2018-04-28T10:16:38.531Z,19.51
2018-04-28T10:19:05.920Z,19.63
2018-04-28T10:21:33.433Z,19.50
2018-04-28T10:24:01.338Z,19.49
2018-04-28T10:26:28.756Z,19.54
2018-04-28T10:28:56.142Z,19.60
2018-04-28T10:31:23.659Z,19.73
2018-04-28T10:33:51.054Z,19.73
2018-04-28T10:36:18.461Z,20.25
2018-04-28T10:38:45.889Z,20.80
2018-04-28T10:41:13.394Z,21.06
2018-04-28T10:43:40.781Z,21.32
2018-04-28T10:46:08.200Z,21.40
2018-04-28T10:48:35.616Z,21.19
2018-04-28T10:51:03.011Z,21.29
2018-04-28T10:53:30.421Z,21.05
2018-04-28T10:55:57.877Z,20.85
2018-04-28T10:58:25.273Z,20.75
2018-04-28T11:00:52.714Z,21.04
2018-04-28T11:03:20.138Z,21.18
2018-04-28T11:05:47.526Z,21.22
2018-04-28T11:08:14.975Z,21.36
2018-04-28T11:10:42.427Z,21.58
2018-04-28T11:13:09.825Z,21.83
2018-04-28T11:15:37.357Z,22.02
2018-04-28T11:18:04.772Z,22.12
2018-04-28T11:20:32.164Z,22.28
2018-04-28T11:22:59.574Z,22.09
2018-04-28T11:25:27.030Z,22.07
2018-04-28T11:27:54.418Z,21.90
2018-04-28T11:30:21.831Z,21.80
2018-04-28T11:32:49.288Z,21.80
2018-04-28T11:35:16.668Z,21.93
2018-04-28T11:37:44.077Z,21.88
2018-04-28T11:40:11.515Z,21.95
2018-04-28T11:42:38.901Z,21.88
2018-04-28T11:45:06.328Z,21.81
2018-04-28T11:47:33.739Z,21.89
2018-04-28T11:50:01.170Z,22.13
2018-04-28T11:52:28.601Z,21.91
2018-04-28T11:54:56.002Z,21.99
2018-04-28T11:57:23.417Z,21.93
2018-04-28T11:59:50.860Z,21.99
2018-04-28T12:02:18.288Z,21.76
2018-04-28T12:04:45.769Z,21.95
2018-04-28T12:07:13.182Z,21.75
2018-04-28T12:09:40.576Z,21.99
2018-04-28T12:12:08.046Z,22.20
2018-04-28T12:14:35.425Z,22.33
2018-04-28T12:17:02.823Z,22.44
2018-04-28T12:19:30.221Z,22.17
2018-04-28T12:21:57.681Z,22.24
2018-04-28T12:24:25.097Z,21.89
2018-04-28T12:26:52.493Z,21.67
2018-04-28T12:29:19.903Z,21.53
2018-04-28T12:31:47.285Z,21.64
2018-04-28T12:34:14.692Z,21.74
2018-04-28T12:36:42.110Z,21.83
2018-04-28T12:39:09.552Z,21.76
2018-04-28T12:41:36.969Z,21.80
2018-04-28T12:44:04.470Z,21.93
2018-04-28T12:46:31.924Z,21.60
2018-04-28T12:48:59.349Z,21.49
2018-04-28T12:51:26.732Z,21.29
2018-04-28T12:53:54.196Z,21.05
2018-04-28T12:56:21.669Z,21.20
2018-04-28T12:58:49.958Z,21.21
2018-04-28T13:01:17.369Z,21.14
2018-04-28T13:03:44.762Z,21.21
2018-04-28T13:06:12.308Z,21.61
2018-04-28T13:08:39.688Z,21.86
2018-04-28T13:11:07.125Z,22.37
2018-04-28T13:13:34.586Z,22.69
2018-04-28T13:16:01.993Z,22.47
2018-04-28T13:18:29.426Z,22.95
2018-04-28T13:20:56.840Z,22.70
2018-04-28T13:23:24.248Z,22.77
2018-04-28T13:25:51.637Z,22.53
2018-04-28T13:28:19.124Z,22.52
2018-04-28T13:30:46.517Z,22.26
2018-04-28T13:33:13.942Z,21.86
2018-04-28T13:35:41.341Z,22.00
2018-04-28T13:38:08.753Z,22.06
2018-04-28T13:40:36.196Z,21.87
2018-04-28T13:43:03.589Z,21.88
2018-04-28T13:45:31.005Z,22.01
2018-04-28T13:47:58.409Z,22.12
2018-04-28T13:50:25.854Z,21.97
2018-04-28T13:52:53.373Z,22.11
2018-04-28T13:55:20.830Z,21.91
2018-04-28T13:57:48.230Z,22.13
2018-04-28T14:00:15.632Z,22.27
2018-04-28T14:02:43.032Z,22.43
2018-04-28T14:05:10.429Z,22.45
2018-04-28T14:07:37.920Z,22.63
2018-04-28T14:10:05.477Z,22.51
2018-04-28T14:12:32.892Z,22.24
2018-04-28T14:15:00.290Z,22.19
2018-04-28T14:17:27.849Z,22.21
2018-04-28T14:19:55.249Z,22.13
2018-04-28T14:22:22.637Z,21.80
2018-04-28T14:24:50.032Z,21.65
2018-04-28T14:27:17.447Z,21.77
2018-04-28T14:29:44.856Z,21.82
2018-04-28T14:32:12.237Z,21.73
2018-04-28T14:34:39.645Z,21.65
2018-04-28T14:37:07.052Z,21.68
2018-04-28T14:39:34.485Z,21.56
2018-04-28T14:42:01.844Z,21.46
2018-04-28T14:44:29.255Z,21.72
2018-04-28T14:46:56.641Z,21.89
2018-04-28T14:49:24.045Z,21.69
2018-04-28T14:51:51.517Z,21.45
2018-04-28T14:54:18.992Z,21.32
2018-04-28T14:56:46.438Z,21.35
2018-04-28T14:59:13.897Z,21.62
2018-04-28T15:01:41.301Z,21.73
2018-04-28T15:04:08.804Z,21.58
2018-04-28T15:06:36.237Z,21.43
2018-04-28T15:09:03.651Z,21.55
2018-04-28T15:11:31.041Z,21.40
2018-04-28T15:13:58.437Z,21.59
2018-04-28T15:16:25.869Z,21.97
2018-04-28T15:18:53.361Z,21.84
2018-04-28T15:21:20.741Z,21.48
2018-04-28T15:23:48.177Z,21.57
2018-04-28T15:26:15.623Z,21.45
2018-04-28T15:28:43.017Z,21.44
2018-04-28T15:31:10.462Z,21.22
2018-04-28T15:33:37.889Z,21.14
2018-04-28T15:36:05.289Z,21.15
2018-04-28T15:38:32.718Z,21.36
2018-04-28T15:41:00.150Z,21.51
2018-04-28T15:43:27.495Z,21.56
2018-04-28T15:45:54.969Z,21.71
2018-04-28T15:48:22.422Z,21.86
2018-04-28T15:50:49.845Z,21.62
2018-04-28T15:53:17.354Z,21.59
2018-04-28T15:55:44.757Z,21.55
2018-04-28T15:58:12.145Z,21.69
2018-04-28T16:00:39.552Z,21.49
2018-04-28T16:03:06.964Z,21.49
2018-04-28T16:05:34.424Z,21.37
2018-04-28T16:08:01.814Z,21.28
2018-04-28T16:10:29.204Z,20.82
2018-04-28T16:12:56.595Z,20.61
2018-04-28T16:15:24.076Z,20.65
2018-04-28T16:17:51.481Z,20.19
2018-04-28T16:20:18.957Z,20.30
2018-04-28T16:22:46.348Z,20.19
2018-04-28T16:25:13.740Z,20.33
2018-04-28T16:27:41.229Z,20.60
2018-04-28T16:30:08.637Z,20.82
2018-04-28T16:32:36.037Z,21.07
2018-04-28T16:35:03.439Z,20.98
2018-04-28T16:37:30.853Z,20.73
2018-04-28T16:39:58.251Z,20.75
2018-04-28T16:42:25.645Z,20.60
2018-04-28T16:44:53.125Z,20.59
2018-04-28T16:47:20.582Z,20.58
2018-04-28T16:49:48.032Z,20.51
2018-04-28T16:52:15.498Z,20.45
2018-04-28T16:54:42.897Z,20.62
2018-04-28T16:57:10.308Z,20.77
2018-04-28T16:59:37.708Z,20.72
2018-04-28T17:02:05.133Z,20.59
2018-04-28T17:04:32.535Z,20.54
2018-04-28T17:06:59.913Z,20.47
2018-04-28T17:09:27.329Z,20.55
2018-04-28T17:11:54.745Z,20.73
2018-04-28T17:14:22.149Z,20.83
2018-04-28T17:16:49.546Z,20.91
2018-04-28T17:19:17.018Z,21.00
2018-04-28T17:21:44.417Z,21.08
2018-04-28T17:24:11.827Z,21.09
2018-04-28T17:26:39.234Z,21.03
2018-04-28T17:29:06.629Z,20.89
2018-04-28T17:31:34.092Z,20.89
2018-04-28T17:34:01.580Z,20.78
2018-04-28T17:36:28.977Z,20.68
2018-04-28T17:38:56.370Z,20.60
2018-04-28T17:41:23.781Z,20.75
2018-04-28T17:43:51.280Z,20.83
2018-04-28T17:46:18.707Z,20.82
2018-04-28T17:48:46.101Z,20.70
2018-04-28T17:51:13.549Z,20.42
2018-04-28T17:53:40.940Z,20.16
2018-04-28T17:56:08.338Z,20.05
2018-04-28T17:58:35.759Z,20.06
2018-04-28T18:01:03.153Z,20.07
2018-04-28T18:03:30.545Z,20.03
2018-04-28T18:05:57.954Z,19.96
2018-04-28T18:08:25.357Z,19.87
2018-04-28T18:10:52.802Z,19.79
2018-04-28T18:13:20.200Z,19.92
2018-04-28T18:15:47.712Z,19.47
2018-04-28T18:18:15.160Z,19.32
2018-04-28T18:20:42.593Z,19.41
2018-04-28T18:23:10.078Z,19.26
2018-04-28T18:25:37.489Z,19.22
2018-04-28T18:28:04.873Z,19.30
2018-04-28T18:30:32.270Z,19.21
2018-04-28T18:32:59.685Z,19.31
2018-04-28T18:35:27.184Z,19.31
2018-04-28T18:37:54.600Z,19.14
2018-04-28T18:40:22.001Z,19.16
2018-04-28T18:42:49.442Z,18.86
2018-04-28T18:45:16.882Z,18.88
2018-04-28T18:47:44.256Z,18.79
2018-04-28T18:50:11.711Z,18.73
2018-04-28T18:52:39.100Z,18.69
2018-04-28T18:55:06.517Z,18.67
2018-04-28T18:57:33.977Z,18.69
2018-04-28T19:00:01.378Z,18.57
2018-04-28T19:02:28.773Z,18.61
2018-04-28T19:04:56.176Z,18.48
2018-04-28T19:07:23.575Z,18.52
2018-04-28T19:09:50.981Z,18.27
2018-04-28T19:12:19.282Z,18.27
2018-04-28T19:14:46.834Z,18.29
2018-04-28T19:17:14.339Z,18.11
2018-04-28T19:19:41.738Z,17.99
2018-04-28T19:22:09.207Z,17.89
2018-04-28T19:24:36.582Z,17.69
2018-04-28T19:27:03.960Z,17.64
2018-04-28T19:29:31.379Z,17.59
2018-04-28T19:31:58.780Z,17.53
2018-04-28T19:34:26.273Z,17.42
2018-04-28T19:36:53.705Z,17.35
2018-04-28T19:39:21.115Z,17.24
2018-04-28T19:41:48.509Z,17.38
2018-04-28T19:44:15.945Z,17.34
2018-04-28T19:46:43.357Z,17.44
2018-04-28T19:49:10.744Z,17.42
2018-04-28T19:51:38.144Z,17.45
2018-04-28T19:54:05.540Z,17.46
2018-04-28T19:56:32.996Z,17.29
2018-04-28T19:59:00.393Z,17.28
2018-04-28T20:01:27.813Z,17.36
2018-04-28T20:03:55.253Z,17.38
2018-04-28T20:06:22.659Z,17.26
2018-04-28T20:08:50.153Z,17.15
2018-04-28T20:11:17.577Z,17.17
2018-04-28T20:13:45.017Z,17.25
2018-04-28T20:16:12.441Z,17.43
2018-04-28T20:18:39.833Z,17.55
2018-04-28T20:21:07.259Z,17.62
2018-04-28T20:23:46.493Z,17.62
2018-04-28T20:26:13.889Z,17.64
2018-04-28T20:28:41.296Z,17.70
2018-04-28T20:31:08.701Z,17.68
2018-04-28T20:33:36.198Z,17.63
2018-04-28T20:36:03.677Z,17.51
2018-04-28T20:38:31.001Z,17.44
2018-04-28T20:40:58.482Z,17.49
2018-04-28T20:43:25.869Z,17.47
2018-04-28T20:45:53.292Z,17.49
2018-04-28T20:48:20.696Z,17.49
2018-04-28T20:50:48.192Z,17.52
2018-04-28T20:53:15.580Z,17.53
2018-04-28T20:55:43.004Z,17.55
2018-04-28T20:58:10.389Z,17.52
2018-04-28T21:00:37.845Z,17.58
2018-04-28T21:03:05.253Z,17.50
2018-04-28T21:05:32.665Z,17.25
2018-04-28T21:08:00.086Z,17.37
2018-04-28T21:10:27.508Z,17.26
2018-04-28T21:12:54.903Z,17.21
2018-04-28T21:15:22.288Z,17.23
2018-04-28T21:17:49.741Z,17.21
2018-04-28T21:20:17.149Z,17.18
2018-04-28T21:22:44.636Z,17.16
2018-04-28T21:25:12.021Z,17.08
2018-04-28T21:27:39.432Z,16.97
2018-04-28T21:30:06.853Z,16.88
2018-04-28T21:32:34.344Z,16.85
2018-04-28T21:35:01.733Z,16.85
2018-04-28T21:37:29.154Z,16.81
2018-04-28T21:39:56.552Z,16.85
2018-04-28T21:42:23.982Z,16.75
2018-04-28T21:44:51.432Z,16.70
2018-04-28T21:47:18.863Z,16.52
2018-04-28T21:49:46.253Z,16.55
2018-04-28T21:52:13.710Z,16.54
2018-04-28T21:54:41.130Z,16.61
2018-04-28T21:57:08.556Z,15.92
2018-04-28T21:59:35.997Z,15.86
2018-04-28T22:02:03.441Z,15.92
2018-04-28T22:04:30.825Z,15.63
2018-04-28T22:06:58.240Z,15.63
2018-04-28T22:09:25.636Z,15.70
2018-04-28T22:11:53.041Z,15.93
2018-04-28T22:14:20.449Z,15.96
2018-04-28T22:16:48.652Z,16.04
2018-04-28T22:19:16.060Z,15.97
2018-04-28T22:21:43.502Z,15.91
2018-04-28T22:24:10.985Z,16.00
2018-04-28T22:26:38.391Z,15.75
2018-04-28T22:29:05.816Z,15.81
2018-04-28T22:31:34.284Z,15.95
2018-04-28T22:34:01.683Z,16.06
2018-04-28T22:36:29.106Z,16.11
2018-04-28T22:38:56.577Z,16.14
2018-04-28T22:41:23.997Z,16.16
2018-04-28T22:43:51.409Z,16.07
2018-04-28T22:46:18.828Z,16.07
2018-04-28T22:48:46.329Z,16.11
2018-04-28T22:51:13.764Z,16.11
2018-04-28T22:53:41.150Z,16.08
2018-04-28T22:56:08.578Z,16.11
2018-04-28T22:58:35.969Z,16.06
2018-04-28T23:01:03.521Z,16.00
2018-04-28T23:03:30.904Z,16.00
2018-04-28T23:05:58.305Z,16.02
2018-04-28T23:08:25.706Z,15.98
2018-04-28T23:10:53.089Z,16.03
2018-04-28T23:13:20.600Z,15.98
2018-04-28T23:15:47.989Z,15.90
2018-04-28T23:18:15.425Z,15.75
2018-04-28T23:20:42.889Z,15.77
2018-04-28T23:23:10.313Z,15.71
2018-04-28T23:25:37.698Z,15.67
2018-04-28T23:28:05.132Z,15.62
2018-04-28T23:30:32.542Z,15.59
2018-04-28T23:32:59.960Z,15.50
2018-04-28T23:35:27.358Z,15.51
2018-04-28T23:37:54.877Z,15.56
2018-04-28T23:40:22.257Z,15.54
2018-04-28T23:42:49.701Z,15.58
2018-04-28T23:45:17.090Z,15.64
2018-04-28T23:47:44.500Z,15.62
2018-04-28T23:50:11.924Z,15.52
2018-04-28T23:52:39.331Z,15.57
2018-04-28T23:55:06.721Z,15.50
2018-04-28T23:57:34.217Z,15.51
